Time,TemperatureF,DewpointF,PressureIn,WindDirection,WindDirectionDegrees,WindSpeedMPH,WindSpeedGustMPH,Humidity,HourlyPrecipIn,Conditions,Clouds,dailyrainin,SoftwareType,DateUTC
2013-02-06 00:00:00,30.0,27.7,29.66,North,0,0.0,0.0,92,0.00,,,0.00,WUHU21636XXSP,2013-02-06 05:00:00,
2013-02-06 00:05:00,30.4,28.2,29.66,North,0,0.0,0.0,92,0.00,,,0.00,WUHU21636XXSP,2013-02-06 05:05:00,
2013-02-06 00:10:00,30.2,28.0,29.66,North,0,0.0,0.0,92,0.00,,,0.00,WUHU21636XXSP,2013-02-06 05:10:00,
2013-02-06 00:15:00,30.4,28.2,29.66,North,0,0.0,0.0,92,0.00,,,0.00,WUHU21636XXSP,2013-02-06 05:15:00,
2013-02-06 00:20:00,30.2,28.0,29.66,North,0,0.0,0.0,92,0.00,,,0.00,WUHU21636XXSP,2013-02-06 05:20:00,
2013-02-06 00:25:00,30.0,27.9,29.66,North,0,0.0,0.0,92,0.00,,,0.00,WUHU21636XXSP,2013-02-06 05:25:00,
2013-02-06 00:30:00,30.0,27.9,29.66,North,0,0.0,0.0,92,0.00,,,0.00,WUHU21636XXSP,2013-02-06 05:30:00,
2013-02-06 00:35:00,30.0,27.9,29.66,North,0,0.0,0.0,92,0.00,,,0.00,WUHU21636XXSP,2013-02-06 05:35:00,
2013-02-06 00:40:00,30.0,27.9,29.66,North,0,0.0,0.0,92,0.00,,,0.00,WUHU21636XXSP,2013-02-06 05:40:00,
2013-02-06 00:45:00,30.0,27.9,29.67,North,0,0.0,0.0,92,0.00,,,0.00,WUHU21636XXSP,2013-02-06 05:45:00,
2013-02-06 00:50:00,30.0,27.9,29.66,North,0,0.0,0.0,92,0.00,,,0.00,WUHU21636XXSP,2013-02-06 05:50:00,
2013-02-06 00:55:00,30.0,27.9,29.66,North,0,0.0,0.0,92,0.00,,,0.00,WUHU21636XXSP,2013-02-06 05:55:00,
2013-02-06 01:00:00,30.0,27.9,29.66,North,0,0.0,0.0,92,0.00,,,0.00,WUHU21636XXSP,2013-02-06 06:00:00,
2013-02-06 01:05:00,30.0,27.9,29.66,North,0,0.0,0.0,92,0.00,,,0.00,WUHU21636XXSP,2013-02-06 06:05:00,
2013-02-06 01:10:00,29.8,27.7,29.66,North,0,0.0,0.0,92,0.00,,,0.00,WUHU21636XXSP,2013-02-06 06:10:00,
2013-02-06 01:15:00,29.5,27.3,29.65,North,0,0.0,0.0,92,0.00,,,0.00,WUHU21636XXSP,2013-02-06 06:15:00,
2013-02-06 01:20:00,29.3,27.1,29.66,North,0,0.0,0.0,92,0.00,,,0.00,WUHU21636XXSP,2013-02-06 06:20:00,
2013-02-06 01:25:00,28.9,26.8,29.66,North,0,0.0,0.0,92,0.00,,,0.00,WUHU21636XXSP,2013-02-06 06:25:00,
2013-02-06 01:30:00,28.8,27.0,29.67,North,0,0.0,0.0,93,0.00,,,0.00,WUHU21636XXSP,2013-02-06 06:30:00,
2013-02-06 01:35:00,28.4,26.2,29.66,North,0,0.0,0.0,92,0.00,,,0.00,WUHU21636XXSP,2013-02-06 06:35:00,
2013-02-06 01:40:00,28.0,25.9,29.66,North,0,0.0,0.0,92,0.00,,,0.00,WUHU21636XXSP,2013-02-06 06:40:00,
2013-02-06 01:45:00,28.0,25.9,29.67,North,0,0.0,0.0,92,0.00,,,0.00,WUHU21636XXSP,2013-02-06 06:45:00,
2013-02-06 01:50:00,27.9,25.7,29.67,North,0,0.0,0.0,92,0.00,,,0.00,WUHU21636XXSP,2013-02-06 06:50:00,
2013-02-06 01:55:00,28.0,25.9,29.67,North,0,0.0,0.0,92,0.00,,,0.00,WUHU21636XXSP,2013-02-06 06:55:00,
2013-02-06 02:00:00,28.2,26.1,29.66,North,0,0.0,0.0,92,0.00,,,0.00,WUHU21636XXSP,2013-02-06 07:00:00,
2013-02-06 02:05:00,28.2,26.1,29.66,North,0,0.0,0.0,92,0.00,,,0.00,WUHU21636XXSP,2013-02-06 07:05:00,
2013-02-06 02:10:00,28.2,26.1,29.66,North,0,0.0,0.0,93,0.00,,,0.00,WUHU21636XXSP,2013-02-06 07:10:00,
2013-02-06 02:15:00,28.0,26.2,29.66,North,0,0.0,0.0,93,0.00,,,0.00,WUHU21636XXSP,2013-02-06 07:15:00,
2013-02-06 02:20:00,27.7,25.9,29.66,North,0,0.0,0.0,93,0.00,,,0.00,WUHU21636XXSP,2013-02-06 07:20:00,
2013-02-06 02:25:00,27.5,25.7,29.66,North,0,0.0,0.0,93,0.00,,,0.00,WUHU21636XXSP,2013-02-06 07:25:00,
2013-02-06 02:30:00,27.3,25.5,29.67,North,0,0.0,0.0,93,0.00,,,0.00,WUHU21636XXSP,2013-02-06 07:30:00,
2013-02-06 02:35:00,27.3,25.5,29.67,North,0,0.0,0.0,93,0.00,,,0.00,WUHU21636XXSP,2013-02-06 07:35:00,
2013-02-06 02:40:00,27.1,25.3,29.66,North,0,0.0,0.0,93,0.00,,,0.00,WUHU21636XXSP,2013-02-06 07:40:00,
2013-02-06 02:45:00,27.0,25.2,29.66,North,0,0.0,0.0,93,0.00,,,0.00,WUHU21636XXSP,2013-02-06 07:45:00,
2013-02-06 02:50:00,27.0,25.2,29.66,North,0,0.0,0.0,93,0.00,,,0.00,WUHU21636XXSP,2013-02-06 07:50:00,
2013-02-06 02:55:00,27.0,25.2,29.67,North,0,0.0,0.0,93,0.00,,,0.00,WUHU21636XXSP,2013-02-06 07:55:00,
2013-02-06 03:00:00,27.0,25.2,29.66,North,0,0.0,0.0,93,0.00,,,0.00,WUHU21636XXSP,2013-02-06 08:00:00,
2013-02-06 03:05:00,26.8,25.0,29.66,North,0,0.0,0.0,93,0.00,,,0.00,WUHU21636XXSP,2013-02-06 08:05:00,
2013-02-06 03:10:00,26.4,24.6,29.66,North,0,0.0,0.0,93,0.00,,,0.00,WUHU21636XXSP,2013-02-06 08:10:00,
2013-02-06 03:15:00,26.4,24.6,29.66,North,0,0.0,0.0,93,0.00,,,0.00,WUHU21636XXSP,2013-02-06 08:15:00,
2013-02-06 03:20:00,26.4,24.6,29.66,North,0,0.0,0.0,93,0.00,,,0.00,WUHU21636XXSP,2013-02-06 08:20:00,
2013-02-06 03:25:00,26.4,24.6,29.67,North,0,0.0,0.0,93,0.00,,,0.00,WUHU21636XXSP,2013-02-06 08:25:00,
2013-02-06 03:30:00,26.4,24.6,29.67,North,0,0.0,0.0,93,0.00,,,0.00,WUHU21636XXSP,2013-02-06 08:30:00,
2013-02-06 03:35:00,26.4,24.6,29.67,North,0,0.0,0.0,93,0.00,,,0.00,WUHU21636XXSP,2013-02-06 08:35:00,
2013-02-06 03:40:00,26.2,24.4,29.67,North,0,0.0,0.0,93,0.00,,,0.00,WUHU21636XXSP,2013-02-06 08:40:00,
2013-02-06 03:45:00,26.4,24.6,29.68,North,0,0.0,0.0,93,0.00,,,0.00,WUHU21636XXSP,2013-02-06 08:45:00,
2013-02-06 03:50:00,26.6,25.0,29.68,North,0,0.0,0.0,94,0.00,,,0.00,WUHU21636XXSP,2013-02-06 08:50:00,
2013-02-06 03:55:00,26.8,25.2,29.68,North,0,0.0,0.0,94,0.00,,,0.00,WUHU21636XXSP,2013-02-06 08:55:00,
2013-02-06 04:00:00,26.4,24.6,29.68,North,0,0.0,0.0,93,0.00,,,0.00,WUHU21636XXSP,2013-02-06 09:00:00,
2013-02-06 04:05:00,26.4,24.6,29.68,North,0,0.0,0.0,93,0.00,,,0.00,WUHU21636XXSP,2013-02-06 09:05:00,
2013-02-06 04:10:00,26.2,24.4,29.68,North,0,0.0,0.0,93,0.00,,,0.00,WUHU21636XXSP,2013-02-06 09:10:00,
2013-02-06 04:15:00,26.2,24.4,29.68,North,0,0.0,0.0,93,0.00,,,0.00,WUHU21636XXSP,2013-02-06 09:15:00,
2013-02-06 04:20:00,25.9,24.3,29.68,North,0,0.0,0.0,93,0.00,,,0.00,WUHU21636XXSP,2013-02-06 09:20:00,
2013-02-06 04:25:00,25.9,24.3,29.68,North,0,0.0,0.0,94,0.00,,,0.00,WUHU21636XXSP,2013-02-06 09:25:00,
2013-02-06 04:30:00,25.9,24.3,29.68,North,0,0.0,0.0,94,0.00,,,0.00,WUHU21636XXSP,2013-02-06 09:30:00,
2013-02-06 04:35:00,25.9,24.3,29.70,North,0,0.0,0.0,94,0.00,,,0.00,WUHU21636XXSP,2013-02-06 09:35:00,
2013-02-06 04:40:00,25.9,24.3,29.70,North,0,0.0,0.0,94,0.00,,,0.00,WUHU21636XXSP,2013-02-06 09:40:00,
2013-02-06 04:45:00,25.9,24.3,29.70,North,0,0.0,0.0,94,0.00,,,0.00,WUHU21636XXSP,2013-02-06 09:45:00,
2013-02-06 04:50:00,25.9,24.3,29.70,North,0,0.0,0.0,94,0.00,,,0.00,WUHU21636XXSP,2013-02-06 09:50:00,
2013-02-06 04:55:00,25.9,24.3,29.70,North,0,0.0,0.0,94,0.00,,,0.00,WUHU21636XXSP,2013-02-06 09:55:00,
2013-02-06 05:00:00,25.9,24.3,29.71,North,0,0.0,0.0,94,0.00,,,0.00,WUHU21636XXSP,2013-02-06 10:00:00,
2013-02-06 05:05:00,25.9,24.3,29.71,North,0,0.0,0.0,94,0.00,,,0.00,WUHU21636XXSP,2013-02-06 10:05:00,
2013-02-06 05:10:00,25.9,24.3,29.72,North,0,0.0,0.0,94,0.00,,,0.00,WUHU21636XXSP,2013-02-06 10:10:00,
2013-02-06 05:15:00,25.9,24.3,29.72,North,0,0.0,0.0,94,0.00,,,0.00,WUHU21636XXSP,2013-02-06 10:15:00,
2013-02-06 05:20:00,25.9,24.3,29.72,North,0,0.0,0.0,94,0.00,,,0.00,WUHU21636XXSP,2013-02-06 10:20:00,
2013-02-06 05:25:00,26.1,24.4,29.73,North,0,0.0,0.0,94,0.00,,,0.00,WUHU21636XXSP,2013-02-06 10:25:00,
2013-02-06 05:30:00,25.9,24.3,29.73,North,0,0.0,0.0,94,0.00,,,0.00,WUHU21636XXSP,2013-02-06 10:30:00,
2013-02-06 05:35:00,25.7,24.1,29.73,North,0,0.0,0.0,94,0.00,,,0.00,WUHU21636XXSP,2013-02-06 10:35:00,
2013-02-06 05:40:00,25.7,24.1,29.74,North,0,0.0,0.0,94,0.00,,,0.00,WUHU21636XXSP,2013-02-06 10:40:00,
2013-02-06 05:45:00,25.7,24.1,29.74,North,0,0.0,0.0,94,0.00,,,0.00,WUHU21636XXSP,2013-02-06 10:45:00,
2013-02-06 05:50:00,26.1,24.4,29.74,NW,315,0.0,0.0,94,0.00,,,0.00,WUHU21636XXSP,2013-02-06 10:50:00,
2013-02-06 05:55:00,26.2,24.6,29.74,NW,315,0.0,0.0,94,0.00,,,0.00,WUHU21636XXSP,2013-02-06 10:55:00,
2013-02-06 06:00:00,26.2,24.6,29.75,NW,315,0.0,0.0,94,0.00,,,0.00,WUHU21636XXSP,2013-02-06 11:00:00,
2013-02-06 06:05:00,26.4,24.8,29.75,NW,315,0.0,0.0,94,0.00,,,0.00,WUHU21636XXSP,2013-02-06 11:05:00,
2013-02-06 06:10:00,26.6,25.0,29.75,NW,315,0.0,0.0,94,0.00,,,0.00,WUHU21636XXSP,2013-02-06 11:10:00,
2013-02-06 06:15:00,26.8,25.2,29.75,NW,315,0.0,0.0,94,0.00,,,0.00,WUHU21636XXSP,2013-02-06 11:15:00,
2013-02-06 06:20:00,27.0,25.3,29.75,West,270,0.0,0.0,94,0.00,,,0.00,WUHU21636XXSP,2013-02-06 11:20:00,
2013-02-06 06:25:00,26.8,25.2,29.75,West,270,0.0,0.0,94,0.00,,,0.00,WUHU21636XXSP,2013-02-06 11:25:00,
2013-02-06 06:30:00,26.8,25.2,29.76,West,270,0.0,0.0,94,0.00,,,0.00,WUHU21636XXSP,2013-02-06 11:30:00,
2013-02-06 06:35:00,26.4,24.6,29.76,West,270,0.0,0.0,93,0.00,,,0.00,WUHU21636XXSP,2013-02-06 11:35:00,
2013-02-06 06:40:00,26.4,24.6,29.76,West,270,0.0,0.0,93,0.00,,,0.00,WUHU21636XXSP,2013-02-06 11:40:00,
2013-02-06 06:45:00,26.2,24.4,29.76,West,270,0.0,0.0,93,0.00,,,0.00,WUHU21636XXSP,2013-02-06 11:45:00,
2013-02-06 06:50:00,26.2,24.4,29.76,West,270,0.0,0.0,93,0.00,,,0.00,WUHU21636XXSP,2013-02-06 11:50:00,
2013-02-06 06:55:00,26.1,24.3,29.76,West,270,0.0,0.0,93,0.00,,,0.00,WUHU21636XXSP,2013-02-06 11:55:00,
2013-02-06 07:00:00,25.9,24.1,29.77,West,270,0.0,0.0,93,0.00,,,0.00,WUHU21636XXSP,2013-02-06 12:00:00,
2013-02-06 07:05:00,25.7,23.9,29.77,West,270,0.0,0.0,93,0.00,,,0.00,WUHU21636XXSP,2013-02-06 12:05:00,
2013-02-06 07:10:00,25.3,23.5,29.78,West,270,0.0,0.0,93,0.00,,,0.00,WUHU21636XXSP,2013-02-06 12:10:00,
2013-02-06 07:15:00,25.3,23.5,29.78,West,270,0.0,0.0,93,0.00,,,0.00,WUHU21636XXSP,2013-02-06 12:15:00,
2013-02-06 07:20:00,25.3,23.5,29.78,WNW,292,0.0,0.0,93,0.00,,,0.00,WUHU21636XXSP,2013-02-06 12:20:00,
2013-02-06 07:25:00,25.7,23.9,29.80,WNW,292,0.0,0.0,93,0.00,,,0.00,WUHU21636XXSP,2013-02-06 12:25:00,
2013-02-06 07:30:00,26.2,24.4,29.80,WNW,292,0.0,0.0,93,0.00,,,0.00,WUHU21636XXSP,2013-02-06 12:30:00,
2013-02-06 07:35:00,26.4,24.6,29.81,WNW,292,0.0,0.0,93,0.00,,,0.00,WUHU21636XXSP,2013-02-06 12:35:00,
2013-02-06 07:40:00,26.8,25.0,29.81,WNW,292,0.0,0.0,93,0.00,,,0.00,WUHU21636XXSP,2013-02-06 12:40:00,
2013-02-06 07:45:00,26.8,25.0,29.81,WNW,292,0.0,0.0,93,0.00,,,0.00,WUHU21636XXSP,2013-02-06 12:45:00,
2013-02-06 07:50:00,27.0,24.8,29.82,WNW,292,0.0,0.0,92,0.00,,,0.00,WUHU21636XXSP,2013-02-06 12:50:00,
2013-02-06 07:55:00,27.0,24.8,29.82,West,270,0.0,0.0,92,0.00,,,0.00,WUHU21636XXSP,2013-02-06 12:55:00,
2013-02-06 08:00:00,27.0,24.8,29.82,WNW,292,0.0,0.0,92,0.00,,,0.00,WUHU21636XXSP,2013-02-06 13:00:00,
2013-02-06 08:05:00,27.0,24.8,29.82,West,270,0.0,0.0,92,0.00,,,0.00,WUHU21636XXSP,2013-02-06 13:05:00,
2013-02-06 08:10:00,27.1,25.0,29.82,WNW,292,0.0,0.0,92,0.00,,,0.00,WUHU21636XXSP,2013-02-06 13:10:00,
2013-02-06 08:15:00,27.0,24.8,29.82,WNW,292,0.0,0.0,92,0.00,,,0.00,WUHU21636XXSP,2013-02-06 13:15:00,
2013-02-06 08:20:00,27.1,25.0,29.82,WNW,292,0.0,0.0,91,0.00,,,0.00,WUHU21636XXSP,2013-02-06 13:20:00,
2013-02-06 08:25:00,27.5,25.0,29.83,WNW,292,0.0,0.0,90,0.00,,,0.00,WUHU21636XXSP,2013-02-06 13:25:00,
2013-02-06 08:30:00,28.0,25.5,29.83,WNW,292,0.0,0.0,90,0.00,,,0.00,WUHU21636XXSP,2013-02-06 13:30:00,
2013-02-06 08:35:00,28.2,25.3,29.83,WNW,292,0.0,0.0,89,0.00,,,0.00,WUHU21636XXSP,2013-02-06 13:35:00,
2013-02-06 08:40:00,28.6,25.7,29.83,WNW,292,0.0,0.0,88,0.00,,,0.00,WUHU21636XXSP,2013-02-06 13:40:00,
2013-02-06 08:45:00,29.5,26.1,29.83,WNW,292,0.0,0.0,87,0.00,,,0.00,WUHU21636XXSP,2013-02-06 13:45:00,
2013-02-06 08:50:00,30.0,26.8,29.83,WNW,292,0.0,0.0,88,0.00,,,0.00,WUHU21636XXSP,2013-02-06 13:50:00,
2013-02-06 08:55:00,30.6,26.6,29.84,WNW,292,0.0,0.0,85,0.00,,,0.00,WUHU21636XXSP,2013-02-06 13:55:00,
2013-02-06 09:00:00,30.7,26.4,29.83,NW,315,0.0,0.0,84,0.00,,,0.00,WUHU21636XXSP,2013-02-06 14:00:00,
2013-02-06 09:05:00,30.9,27.1,29.84,NW,315,0.0,0.0,86,0.00,,,0.00,WUHU21636XXSP,2013-02-06 14:05:00,
2013-02-06 09:10:00,31.3,27.0,29.85,NW,315,0.0,0.0,84,0.00,,,0.00,WUHU21636XXSP,2013-02-06 14:10:00,
2013-02-06 09:15:00,31.5,26.6,29.85,NW,315,1.7,1.7,83,0.00,,,0.00,WUHU21636XXSP,2013-02-06 14:15:00,
2013-02-06 09:20:00,31.6,26.4,29.85,NW,315,0.0,1.7,81,0.00,,,0.00,WUHU21636XXSP,2013-02-06 14:20:00,
2013-02-06 09:25:00,31.6,26.4,29.85,NW,315,0.0,1.7,82,0.00,,,0.00,WUHU21636XXSP,2013-02-06 14:25:00,
2013-02-06 09:30:00,31.8,26.6,29.85,WNW,292,0.0,0.0,81,0.00,,,0.00,WUHU21636XXSP,2013-02-06 14:30:00,
2013-02-06 09:35:00,31.8,26.6,29.85,NW,315,0.0,0.0,81,0.00,,,0.00,WUHU21636XXSP,2013-02-06 14:35:00,
2013-02-06 09:40:00,32.0,26.8,29.85,NW,315,0.0,0.0,81,0.00,,,0.00,WUHU21636XXSP,2013-02-06 14:40:00,
2013-02-06 09:45:00,32.2,27.0,29.85,WNW,292,0.0,0.0,80,0.00,,,0.00,WUHU21636XXSP,2013-02-06 14:45:00,
2013-02-06 09:50:00,32.4,26.8,29.86,WNW,292,0.0,0.0,81,0.00,,,0.00,WUHU21636XXSP,2013-02-06 14:50:00,
2013-02-06 09:55:00,32.5,27.5,29.86,WNW,292,1.1,1.1,81,0.00,,,0.00,WUHU21636XXSP,2013-02-06 14:55:00,
2013-02-06 10:00:00,32.7,27.5,29.86,NNW,337,0.0,1.1,81,0.00,,,0.00,WUHU21636XXSP,2013-02-06 15:00:00,
2013-02-06 10:05:00,33.1,27.1,29.86,WNW,292,0.0,0.0,79,0.00,,,0.00,WUHU21636XXSP,2013-02-06 15:05:00,
2013-02-06 10:10:00,33.1,27.1,29.87,NW,315,0.0,0.0,81,0.00,,,0.00,WUHU21636XXSP,2013-02-06 15:10:00,
2013-02-06 10:15:00,33.4,27.5,29.86,West,270,0.0,2.6,79,0.00,,,0.00,WUHU21636XXSP,2013-02-06 15:15:00,
2013-02-06 10:20:00,33.6,27.7,29.86,WNW,292,0.0,2.6,78,0.00,,,0.00,WUHU21636XXSP,2013-02-06 15:20:00,
2013-02-06 10:25:00,33.8,27.1,29.86,West,270,0.0,0.0,77,0.00,,,0.00,WUHU21636XXSP,2013-02-06 15:25:00,
2013-02-06 10:30:00,34.0,28.0,29.87,NNW,337,3.5,3.5,79,0.00,,,0.00,WUHU21636XXSP,2013-02-06 15:30:00,
2013-02-06 10:35:00,34.0,28.0,29.86,West,270,0.0,3.5,77,0.00,,,0.00,WUHU21636XXSP,2013-02-06 15:35:00,
2013-02-06 10:40:00,34.5,28.2,29.87,NW,315,0.0,0.0,78,0.00,,,0.00,WUHU21636XXSP,2013-02-06 15:40:00,
2013-02-06 10:45:00,34.5,28.2,29.87,WNW,292,0.0,0.0,76,0.00,,,0.00,WUHU21636XXSP,2013-02-06 15:45:00,
2013-02-06 10:50:00,34.9,28.2,29.87,WNW,292,0.8,0.8,76,0.00,,,0.00,WUHU21636XXSP,2013-02-06 15:50:00,
2013-02-06 10:55:00,34.5,27.9,29.87,WNW,292,0.0,0.8,77,0.00,,,0.00,WUHU21636XXSP,2013-02-06 15:55:00,
2013-02-06 11:00:00,35.1,27.9,29.87,West,270,1.5,1.5,75,0.00,,,0.00,WUHU21636XXSP,2013-02-06 16:00:00,
2013-02-06 11:05:00,35.6,28.9,29.87,NNW,337,0.0,1.5,77,0.00,,,0.00,WUHU21636XXSP,2013-02-06 16:05:00,
2013-02-06 11:10:00,35.4,27.1,29.87,NW,315,2.4,2.4,72,0.00,,,0.00,WUHU21636XXSP,2013-02-06 16:10:00,
2013-02-06 11:15:00,35.6,28.0,29.88,NW,315,0.4,2.4,74,0.00,,,0.00,WUHU21636XXSP,2013-02-06 16:15:00,
2013-02-06 11:20:00,35.2,27.0,29.88,WNW,292,2.6,3.1,72,0.00,,,0.00,WUHU21636XXSP,2013-02-06 16:20:00,
2013-02-06 11:25:00,34.9,27.0,29.88,WNW,292,1.7,3.1,73,0.00,,,0.00,WUHU21636XXSP,2013-02-06 16:25:00,
2013-02-06 11:30:00,34.5,27.0,29.88,NW,315,1.1,1.7,72,0.00,,,0.00,WUHU21636XXSP,2013-02-06 16:30:00,
2013-02-06 11:35:00,34.3,26.4,29.88,WNW,286,3.2,3.5,73,0.00,,,0.00,WUHU21636XXSP,2013-02-06 16:35:00,
2013-02-06 11:40:00,34.2,26.6,29.88,NNW,337,0.0,3.5,74,0.00,,,0.00,WUHU21636XXSP,2013-02-06 16:40:00,
2013-02-06 11:45:00,34.2,26.2,29.88,NW,315,0.0,2.6,73,0.00,,,0.00,WUHU21636XXSP,2013-02-06 16:45:00,
2013-02-06 11:50:00,34.5,26.6,29.88,West,270,2.2,2.2,73,0.00,,,0.00,WUHU21636XXSP,2013-02-06 16:50:00,
2013-02-06 11:55:00,34.5,26.6,29.88,NNW,337,0.0,2.2,75,0.00,,,0.00,WUHU21636XXSP,2013-02-06 16:55:00,
2013-02-06 12:00:00,34.7,26.8,29.88,NW,315,0.0,4.2,73,0.00,,,0.00,WUHU21636XXSP,2013-02-06 17:00:00,
2013-02-06 12:05:00,35.1,26.4,29.88,WNW,292,0.0,4.2,71,0.00,,,0.00,WUHU21636XXSP,2013-02-06 17:05:00,
2013-02-06 12:10:00,35.4,27.1,29.87,WNW,303,2.3,3.3,72,0.00,,,0.00,WUHU21636XXSP,2013-02-06 17:10:00,
2013-02-06 12:15:00,35.8,27.0,29.88,West,270,3.5,3.5,70,0.00,,,0.00,WUHU21636XXSP,2013-02-06 17:15:00,
2013-02-06 12:20:00,35.6,26.4,29.87,NNW,337,7.1,8.0,69,0.00,,,0.00,WUHU21636XXSP,2013-02-06 17:20:00,
2013-02-06 12:25:00,35.6,26.8,29.87,NW,315,1.5,9.1,70,0.00,,,0.00,WUHU21636XXSP,2013-02-06 17:25:00,
2013-02-06 12:30:00,35.8,27.0,29.87,NNE,22,2.6,9.1,70,0.00,,,0.00,WUHU21636XXSP,2013-02-06 17:30:00,
2013-02-06 12:35:00,35.8,27.0,29.87,NW,315,2.0,2.6,69,0.00,,,0.00,WUHU21636XXSP,2013-02-06 17:35:00,
2013-02-06 12:40:00,35.8,26.4,29.87,WNW,292,1.7,9.3,67,0.00,,,0.00,WUHU21636XXSP,2013-02-06 17:40:00,
2013-02-06 12:45:00,35.8,25.7,29.87,West,270,5.5,9.3,67,0.00,,,0.00,WUHU21636XXSP,2013-02-06 17:45:00,
2013-02-06 12:50:00,36.1,26.1,29.87,West,270,4.6,8.2,67,0.00,,,0.00,WUHU21636XXSP,2013-02-06 17:50:00,
2013-02-06 12:55:00,36.5,26.4,29.87,WNW,292,4.4,8.2,67,0.00,,,0.00,WUHU21636XXSP,2013-02-06 17:55:00,
2013-02-06 13:00:00,36.1,26.1,29.87,WNW,292,2.0,4.4,67,0.00,,,0.00,WUHU21636XXSP,2013-02-06 18:00:00,
2013-02-06 13:05:00,35.8,25.3,29.87,WNW,292,3.5,8.0,66,0.00,,,0.00,WUHU21636XXSP,2013-02-06 18:05:00,
2013-02-06 13:10:00,36.0,25.5,29.88,NW,315,3.1,8.0,66,0.00,,,0.00,WUHU21636XXSP,2013-02-06 18:10:00,
2013-02-06 13:15:00,36.0,25.5,29.88,NW,307,3.4,7.6,66,0.00,,,0.00,WUHU21636XXSP,2013-02-06 18:15:00,
2013-02-06 13:20:00,36.1,26.1,29.88,NNW,331,4.2,10.5,67,0.00,,,0.00,WUHU21636XXSP,2013-02-06 18:20:00,
2013-02-06 13:25:00,36.3,25.5,29.88,NW,315,2.0,10.5,65,0.00,,,0.00,WUHU21636XXSP,2013-02-06 18:25:00,
2013-02-06 13:30:00,36.5,26.1,29.88,North,353,2.7,3.5,66,0.00,,,0.00,WUHU21636XXSP,2013-02-06 18:30:00,
2013-02-06 13:35:00,37.2,26.4,29.88,West,270,2.2,7.3,65,0.00,,,0.00,WUHU21636XXSP,2013-02-06 18:35:00,
2013-02-06 13:40:00,38.1,26.4,29.88,WNW,292,2.0,7.3,63,0.00,,,0.00,WUHU21636XXSP,2013-02-06 18:40:00,
2013-02-06 13:45:00,37.2,26.1,29.88,North,0,0.0,2.0,64,0.00,,,0.00,WUHU21636XXSP,2013-02-06 18:45:00,
2013-02-06 13:50:00,36.9,25.7,29.88,NNW,337,2.2,8.9,63,0.00,,,0.00,WUHU21636XXSP,2013-02-06 18:50:00,
2013-02-06 13:55:00,37.2,26.4,29.88,NW,315,1.7,8.9,62,0.00,,,0.00,WUHU21636XXSP,2013-02-06 18:55:00,
2013-02-06 14:00:00,36.7,25.9,29.88,NNW,337,7.7,10.7,65,0.00,,,0.00,WUHU21636XXSP,2013-02-06 19:00:00,
2013-02-06 14:05:00,36.7,25.5,29.88,NNW,343,4.9,13.6,64,0.00,,,0.00,WUHU21636XXSP,2013-02-06 19:05:00,
2013-02-06 14:10:00,37.0,26.2,29.89,NW,315,0.4,13.6,65,0.00,,,0.00,WUHU21636XXSP,2013-02-06 19:10:00,
2013-02-06 14:15:00,37.0,26.2,29.89,NNW,337,6.2,10.5,65,0.00,,,0.00,WUHU21636XXSP,2013-02-06 19:15:00,
2013-02-06 14:20:00,36.7,25.9,29.89,NNW,337,0.0,10.5,65,0.00,,,0.00,WUHU21636XXSP,2013-02-06 19:20:00,
2013-02-06 14:25:00,37.6,26.4,29.89,WSW,247,2.2,9.3,64,0.00,,,0.00,WUHU21636XXSP,2013-02-06 19:25:00,
2013-02-06 14:30:00,39.0,25.7,29.89,WNW,292,5.1,10.0,59,0.00,,,0.00,WUHU21636XXSP,2013-02-06 19:30:00,
2013-02-06 14:35:00,37.9,25.5,29.88,NW,315,1.7,10.0,61,0.00,,,0.00,WUHU21636XXSP,2013-02-06 19:35:00,
2013-02-06 14:40:00,36.7,25.2,29.89,NW,304,1.9,9.3,63,0.00,,,0.00,WUHU21636XXSP,2013-02-06 19:40:00,
2013-02-06 14:45:00,36.5,26.1,29.88,NW,315,0.0,2.2,66,0.00,,,0.00,WUHU21636XXSP,2013-02-06 19:45:00,
2013-02-06 14:50:00,37.9,26.4,29.89,WSW,247,2.6,2.6,63,0.00,,,0.00,WUHU21636XXSP,2013-02-06 19:50:00,
2013-02-06 14:55:00,38.5,25.7,29.89,WSW,247,2.4,2.6,60,0.00,,,0.00,WUHU21636XXSP,2013-02-06 19:55:00,
2013-02-06 15:00:00,39.0,25.3,29.90,WSW,247,3.7,9.6,58,0.00,,,0.00,WUHU21636XXSP,2013-02-06 20:00:00,
2013-02-06 15:05:00,38.3,25.5,29.89,NW,315,6.0,9.6,60,0.00,,,0.00,WUHU21636XXSP,2013-02-06 20:05:00,
2013-02-06 15:10:00,37.6,24.8,29.90,NNW,337,1.7,7.6,60,0.00,,,0.00,WUHU21636XXSP,2013-02-06 20:10:00,
2013-02-06 15:15:00,37.9,26.4,29.90,WSW,247,0.8,8.0,63,0.00,,,0.00,WUHU21636XXSP,2013-02-06 20:15:00,
2013-02-06 15:20:00,38.8,26.4,29.90,WSW,247,0.0,8.0,61,0.00,,,0.00,WUHU21636XXSP,2013-02-06 20:20:00,
2013-02-06 15:25:00,39.7,26.1,29.90,WSW,247,3.8,4.6,58,0.00,,,0.00,WUHU21636XXSP,2013-02-06 20:25:00,
2013-02-06 15:30:00,38.7,25.9,29.91,WSW,250,4.7,10.9,60,0.00,,,0.00,WUHU21636XXSP,2013-02-06 20:30:00,
2013-02-06 15:35:00,38.1,26.1,29.91,WSW,247,3.5,10.9,62,0.00,,,0.00,WUHU21636XXSP,2013-02-06 20:35:00,
2013-02-06 15:40:00,38.7,26.2,29.91,WSW,247,3.5,3.5,61,0.00,,,0.00,WUHU21636XXSP,2013-02-06 20:40:00,
2013-02-06 15:45:00,38.8,26.1,29.91,WSW,247,0.0,3.5,60,0.00,,,0.00,WUHU21636XXSP,2013-02-06 20:45:00,
2013-02-06 15:50:00,38.8,25.5,29.91,WSW,247,2.6,2.6,58,0.00,,,0.00,WUHU21636XXSP,2013-02-06 20:50:00,
2013-02-06 15:55:00,39.2,26.8,29.91,WSW,247,0.0,2.6,61,0.00,,,0.00,WUHU21636XXSP,2013-02-06 20:55:00,
2013-02-06 16:00:00,39.4,26.6,29.91,WSW,247,2.9,2.9,59,0.00,,,0.00,WUHU21636XXSP,2013-02-06 21:00:00,
2013-02-06 16:05:00,38.8,26.1,29.91,WSW,247,4.2,6.7,60,0.00,,,0.00,WUHU21636XXSP,2013-02-06 21:05:00,
2013-02-06 16:10:00,38.1,25.0,29.92,WSW,247,4.4,12.7,59,0.00,,,0.00,WUHU21636XXSP,2013-02-06 21:10:00,
2013-02-06 16:15:00,37.9,25.2,29.92,WSW,247,4.2,12.7,60,0.00,,,0.00,WUHU21636XXSP,2013-02-06 21:15:00,
2013-02-06 16:20:00,37.2,25.0,29.92,WSW,247,3.2,12.5,61,0.00,,,0.00,WUHU21636XXSP,2013-02-06 21:20:00,
2013-02-06 16:25:00,37.0,25.2,29.93,WSW,247,0.7,7.8,62,0.00,,,0.00,WUHU21636XXSP,2013-02-06 21:25:00,
2013-02-06 16:30:00,36.7,24.8,29.93,WSW,247,0.0,6.7,65,0.00,,,0.00,WUHU21636XXSP,2013-02-06 21:30:00,
2013-02-06 16:35:00,36.5,25.7,29.93,WSW,247,0.0,0.6,65,0.00,,,0.00,WUHU21636XXSP,2013-02-06 21:35:00,
2013-02-06 16:40:00,36.1,25.0,29.93,WSW,247,0.0,0.0,64,0.00,,,0.00,WUHU21636XXSP,2013-02-06 21:40:00,
2013-02-06 16:45:00,36.0,24.8,29.93,NNW,337,0.0,0.0,64,0.00,,,0.00,WUHU21636XXSP,2013-02-06 21:45:00,
2013-02-06 16:50:00,35.8,25.0,29.94,NNW,337,0.0,0.0,65,0.00,,,0.00,WUHU21636XXSP,2013-02-06 21:50:00,
2013-02-06 16:55:00,35.4,25.2,29.94,NNW,337,2.6,2.6,66,0.00,,,0.00,WUHU21636XXSP,2013-02-06 21:55:00,
2013-02-06 17:00:00,35.1,25.2,29.94,NNW,337,0.0,2.6,67,0.00,,,0.00,WUHU21636XXSP,2013-02-06 22:00:00,
2013-02-06 17:05:00,34.7,25.2,29.94,WNW,292,0.0,0.0,68,0.00,,,0.00,WUHU21636XXSP,2013-02-06 22:05:00,
2013-02-06 17:10:00,34.5,25.0,29.94,NW,315,0.6,0.8,67,0.00,,,0.00,WUHU21636XXSP,2013-02-06 22:10:00,
2013-02-06 17:15:00,34.3,25.2,29.95,NW,315,0.0,0.8,69,0.00,,,0.00,WUHU21636XXSP,2013-02-06 22:15:00,
2013-02-06 17:20:00,34.0,24.8,29.95,NNW,337,0.0,0.6,68,0.00,,,0.00,WUHU21636XXSP,2013-02-06 22:20:00,
2013-02-06 17:25:00,33.6,24.4,29.95,WNW,292,0.0,0.0,69,0.00,,,0.00,WUHU21636XXSP,2013-02-06 22:25:00,
2013-02-06 17:30:00,33.4,24.6,29.96,WNW,292,0.0,0.0,70,0.00,,,0.00,WUHU21636XXSP,2013-02-06 22:30:00,
2013-02-06 17:35:00,33.1,24.3,29.96,North,0,1.3,1.3,70,0.00,,,0.00,WUHU21636XXSP,2013-02-06 22:35:00,
2013-02-06 17:40:00,33.1,24.3,29.97,NW,315,4.9,6.9,70,0.00,,,0.00,WUHU21636XXSP,2013-02-06 22:40:00,
2013-02-06 17:45:00,32.9,24.1,29.97,NNW,337,0.8,6.9,70,0.00,,,0.00,WUHU21636XXSP,2013-02-06 22:45:00,
2013-02-06 17:50:00,32.7,24.3,29.96,NW,315,0.0,0.8,71,0.00,,,0.00,WUHU21636XXSP,2013-02-06 22:50:00,
2013-02-06 17:55:00,32.5,24.1,29.96,NNW,337,0.0,0.0,71,0.00,,,0.00,WUHU21636XXSP,2013-02-06 22:55:00,
2013-02-06 18:00:00,32.5,24.1,29.96,NNW,337,0.0,0.0,71,0.00,,,0.00,WUHU21636XXSP,2013-02-06 23:00:00,
2013-02-06 18:05:00,32.2,24.1,29.97,North,0,0.0,0.0,72,0.00,,,0.00,WUHU21636XXSP,2013-02-06 23:05:00,
2013-02-06 18:10:00,32.2,24.1,29.97,NNW,337,0.0,0.0,72,0.00,,,0.00,WUHU21636XXSP,2013-02-06 23:10:00,
2013-02-06 18:15:00,32.2,24.1,29.98,NNW,337,0.0,0.0,72,0.00,,,0.00,WUHU21636XXSP,2013-02-06 23:15:00,
2013-02-06 18:20:00,32.2,24.1,29.98,NNW,337,0.0,0.0,72,0.00,,,0.00,WUHU21636XXSP,2013-02-06 23:20:00,
2013-02-06 18:25:00,31.3,23.2,29.99,NNW,337,0.0,0.0,72,0.00,,,0.00,WUHU21636XXSP,2013-02-06 23:25:00,
2013-02-06 18:30:00,31.1,23.0,29.99,NNW,337,0.0,0.0,72,0.00,,,0.00,WUHU21636XXSP,2013-02-06 23:30:00,
2013-02-06 18:35:00,31.1,23.0,29.99,NNW,337,0.0,0.0,72,0.00,,,0.00,WUHU21636XXSP,2013-02-06 23:35:00,
2013-02-06 18:39:00,31.1,23.0,29.99,NNW,337,0.0,0.0,72,0.00,,,0.00,WUHU21636XXSP,2013-02-06 23:39:00,
2013-02-06 18:40:00,31.1,23.0,29.99,NNW,337,0.0,0.0,72,0.00,,,0.00,WUHU21636XXSP,2013-02-06 23:40:00,
2013-02-06 18:45:00,31.1,23.0,29.99,NNW,337,0.0,0.0,72,0.00,,,0.00,WUHU21636XXSP,2013-02-06 23:45:00,
2013-02-06 19:08:00,29.5,22.6,30.00,NNW,337,0.0,0.0,75,0.00,,,0.00,WUHU21636XXSP,2013-02-07 00:08:00,
2013-02-06 19:13:00,29.5,22.5,30.00,NNW,337,0.0,0.0,75,0.00,,,0.00,WUHU21636XXSP,2013-02-07 00:13:00,
2013-02-06 19:18:00,29.5,22.5,30.00,NNW,337,0.0,0.0,75,0.00,,,0.00,WUHU21636XXSP,2013-02-07 00:18:00,
2013-02-06 19:23:00,29.5,22.5,30.00,NNW,337,0.0,0.0,75,0.00,,,0.00,WUHU21636XXSP,2013-02-07 00:23:00,
2013-02-06 19:28:00,29.5,22.5,30.01,NNW,337,0.0,0.0,75,0.00,,,0.00,WUHU21636XXSP,2013-02-07 00:28:00,
2013-02-06 19:33:00,28.9,21.9,30.01,NNW,337,0.0,0.0,75,0.00,,,0.00,WUHU21636XXSP,2013-02-07 00:33:00,
2013-02-06 19:38:00,28.9,21.9,30.01,NNW,337,0.0,0.0,75,0.00,,,0.00,WUHU21636XXSP,2013-02-07 00:38:00,
2013-02-06 19:43:00,28.9,21.9,30.01,NNW,337,0.0,0.0,75,0.00,,,0.00,WUHU21636XXSP,2013-02-07 00:43:00,
2013-02-06 19:48:00,28.9,21.9,30.01,NNW,337,0.0,0.0,75,0.00,,,0.00,WUHU21636XXSP,2013-02-07 00:48:00,
2013-02-06 19:52:00,28.9,21.9,30.01,NNW,337,0.0,0.0,75,0.00,,,0.00,WUHU21636XXSP,2013-02-07 00:52:00,
2013-02-06 19:53:00,28.9,21.9,30.01,NNW,337,0.0,0.0,75,0.00,,,0.00,WUHU21636XXSP,2013-02-07 00:53:00,
2013-02-06 19:58:00,28.9,21.9,30.01,NNW,337,0.0,0.0,75,0.00,,,0.00,WUHU21636XXSP,2013-02-07 00:58:00,
2013-02-06 20:53:00,27.5,20.8,30.03,NNW,337,0.0,0.0,76,0.00,,,0.00,WUHU21636XXSP,2013-02-07 01:53:00,
2013-02-06 20:58:00,27.5,20.8,30.03,NNW,337,0.0,0.0,76,0.00,,,0.00,WUHU21636XXSP,2013-02-07 01:58:00,
2013-02-06 21:03:00,27.5,20.8,30.03,NNW,337,0.0,0.0,76,0.00,,,0.00,WUHU21636XXSP,2013-02-07 02:03:00,
2013-02-06 21:08:00,27.0,20.3,30.04,NNW,337,0.0,0.0,76,0.00,,,0.00,WUHU21636XXSP,2013-02-07 02:08:00,
2013-02-06 21:13:00,27.0,20.3,30.04,NNW,337,0.0,0.0,76,0.00,,,0.00,WUHU21636XXSP,2013-02-07 02:13:00,
2013-02-06 21:18:00,27.0,20.3,30.04,NNW,337,0.0,0.0,76,0.00,,,0.00,WUHU21636XXSP,2013-02-07 02:18:00,
2013-02-06 21:23:00,27.0,20.3,30.04,NNW,337,0.0,0.0,76,0.00,,,0.00,WUHU21636XXSP,2013-02-07 02:23:00,
2013-02-06 21:25:00,27.0,20.3,30.04,NNW,337,0.0,0.0,76,0.00,,,0.00,WUHU21636XXSP,2013-02-07 02:25:00,
2013-02-06 21:28:00,27.0,20.3,30.04,NNW,337,0.0,0.0,76,0.00,,,0.00,WUHU21636XXSP,2013-02-07 02:28:00,
2013-02-06 21:33:00,27.0,20.3,30.04,NNW,337,0.0,0.0,76,0.00,,,0.00,WUHU21636XXSP,2013-02-07 02:33:00,
2013-02-06 22:26:00,25.5,18.5,30.07,NNW,337,0.0,0.0,75,0.00,,,0.00,WUHU21636XXSP,2013-02-07 03:26:00,
2013-02-06 22:31:00,25.5,18.5,30.07,NNW,337,0.0,0.0,74,0.00,,,0.00,WUHU21636XXSP,2013-02-07 03:31:00,
2013-02-06 22:36:00,25.3,18.1,30.07,NNW,337,0.0,0.0,74,0.00,,,0.00,WUHU21636XXSP,2013-02-07 03:36:00,
2013-02-06 22:41:00,25.3,18.1,30.07,NNW,337,0.0,0.0,74,0.00,,,0.00,WUHU21636XXSP,2013-02-07 03:41:00,
2013-02-06 22:46:00,25.3,18.1,30.07,NNW,337,0.0,0.0,74,0.00,,,0.00,WUHU21636XXSP,2013-02-07 03:46:00,
2013-02-06 22:51:00,25.3,18.1,30.07,NNW,337,0.0,0.0,74,0.00,,,0.00,WUHU21636XXSP,2013-02-07 03:51:00,
2013-02-06 22:56:00,25.3,18.1,30.07,NNW,337,0.0,0.0,74,0.00,,,0.00,WUHU21636XXSP,2013-02-07 03:56:00,
2013-02-06 23:01:00,25.3,18.1,30.07,NNW,337,0.0,0.0,74,0.00,,,0.00,WUHU21636XXSP,2013-02-07 04:01:00,
2013-02-06 23:06:00,25.0,17.8,30.07,NNW,337,0.0,0.0,74,0.00,,,0.00,WUHU21636XXSP,2013-02-07 04:06:00,
2013-02-06 23:11:00,25.0,17.8,30.07,NNW,337,0.0,0.0,73,0.00,,,0.00,WUHU21636XXSP,2013-02-07 04:11:00,
2013-02-06 23:16:00,24.8,17.2,30.07,NNW,337,0.0,0.0,73,0.00,,,0.00,WUHU21636XXSP,2013-02-07 04:16:00,
2013-02-06 23:21:00,24.6,17.1,30.07,NNW,337,0.0,0.0,73,0.00,,,0.00,WUHU21636XXSP,2013-02-07 04:21:00,
2013-02-06 23:26:00,24.6,17.1,30.07,NNW,337,0.0,0.0,72,0.00,,,0.00,WUHU21636XXSP,2013-02-07 04:26:00,
2013-02-06 23:31:00,24.8,16.9,30.07,NNW,337,0.0,0.0,72,0.00,,,0.00,WUHU21636XXSP,2013-02-07 04:31:00,
2013-02-06 23:36:00,24.6,16.3,30.08,NNW,337,0.0,0.0,71,0.00,,,0.00,WUHU21636XXSP,2013-02-07 04:36:00,
2013-02-06 23:41:00,24.8,16.5,30.08,NNW,337,0.0,0.0,71,0.00,,,0.00,WUHU21636XXSP,2013-02-07 04:41:00,
2013-02-06 23:46:00,25.0,16.5,30.08,NNW,337,0.0,0.0,70,0.00,,,0.00,WUHU21636XXSP,2013-02-07 04:46:00,
2013-02-06 23:51:00,24.6,16.2,30.08,NNW,337,0.0,0.0,70,0.00,,,0.00,WUHU21636XXSP,2013-02-07 04:51:00,
2013-02-06 23:56:00,24.8,16.3,30.08,NNW,337,0.0,0.0,70,0.00,,,0.00,WUHU21636XXSP,2013-02-07 04:56:00,